createdAt,value
2017-12-01T00:00:57.651Z,10.70
2017-12-01T00:03:26.126Z,8.80
2017-12-01T00:05:54.404Z,11.43
2017-12-01T00:08:23.232Z,9.73
2017-12-01T00:10:50.725Z,9.03
2017-12-01T00:13:18.227Z,9.20
2017-12-01T00:15:45.739Z,9.03
2017-12-01T00:18:13.223Z,10.03
2017-12-01T00:20:41.517Z,8.50
2017-12-01T00:23:09.027Z,9.13
2017-12-01T00:25:36.528Z,9.57
2017-12-01T00:28:04.898Z,9.60
2017-12-01T00:30:33.146Z,12.40
2017-12-01T00:33:00.634Z,10.27
2017-12-01T00:35:28.894Z,13.83
2017-12-01T00:37:56.415Z,11.00
2017-12-01T00:40:24.725Z,15.30
2017-12-01T00:42:52.968Z,13.53
2017-12-01T00:45:20.455Z,13.90
2017-12-01T00:47:48.718Z,13.67
2017-12-01T00:50:16.701Z,9.90
2017-12-01T00:52:44.175Z,16.10
2017-12-01T00:55:11.686Z,15.20
2017-12-01T00:57:39.171Z,13.70
2017-12-01T01:00:07.439Z,13.60
2017-12-01T01:02:34.958Z,12.83
2017-12-01T01:05:02.537Z,12.83
2017-12-01T01:07:30.039Z,12.33
2017-12-01T01:09:57.566Z,16.87
2017-12-01T01:12:25.064Z,11.77
2017-12-01T01:14:52.599Z,12.70
2017-12-01T01:17:20.868Z,17.10
2017-12-01T01:19:48.366Z,15.40
2017-12-01T01:22:16.771Z,15.90
2017-12-01T01:24:44.519Z,11.60
2017-12-01T01:27:12.017Z,12.33
2017-12-01T01:29:39.604Z,12.97
2017-12-01T01:32:07.866Z,17.30
2017-12-01T01:34:36.126Z,15.27
2017-12-01T01:37:04.519Z,18.97
2017-12-01T01:39:32.783Z,13.23
2017-12-01T01:42:00.298Z,11.90
2017-12-01T01:44:27.982Z,12.33
2017-12-01T01:46:55.480Z,11.20
2017-12-01T01:49:24.619Z,14.47
2017-12-01T01:51:52.957Z,12.90
2017-12-01T01:54:21.211Z,13.80
2017-12-01T01:56:49.476Z,13.47
2017-12-01T01:59:17.061Z,11.23
2017-12-01T02:01:45.328Z,18.13
2017-12-01T02:04:13.618Z,15.70
2017-12-01T02:06:41.897Z,16.10
2017-12-01T02:09:10.175Z,11.67
2017-12-01T02:11:37.664Z,22.10
2017-12-01T02:14:05.189Z,12.67
2017-12-01T02:16:33.451Z,27.67
2017-12-01T02:19:01.742Z,23.33
2017-12-01T02:21:29.250Z,18.90
2017-12-01T02:23:56.810Z,29.20
2017-12-01T02:26:25.051Z,28.17
2017-12-01T02:28:52.598Z,15.93
2017-12-01T02:31:20.103Z,24.73
2017-12-01T02:33:47.595Z,18.83
2017-12-01T02:36:16.704Z,18.90
2017-12-01T02:38:44.980Z,15.13
2017-12-01T02:41:12.503Z,23.07
2017-12-01T02:43:40.001Z,36.40
2017-12-01T02:46:07.521Z,49.47
2017-12-01T02:48:35.021Z,30.73
2017-12-01T02:51:02.533Z,23.87
2017-12-01T02:53:30.249Z,19.10
2017-12-01T02:55:57.750Z,18.70
2017-12-01T02:58:25.375Z,19.30
2017-12-01T03:00:53.467Z,21.17
2017-12-01T03:03:20.981Z,19.50
2017-12-01T03:05:48.626Z,17.90
2017-12-01T03:08:16.940Z,37.03
2017-12-01T03:10:44.504Z,23.63
2017-12-01T03:13:12.719Z,18.53
2017-12-01T03:15:40.215Z,17.70
2017-12-01T03:18:07.729Z,16.90
2017-12-01T03:20:35.240Z,16.10
2017-12-01T03:23:02.732Z,20.53
2017-12-01T03:25:30.220Z,17.30
2017-12-01T03:27:58.495Z,19.70
2017-12-01T03:30:26.773Z,17.47
2017-12-01T03:32:55.057Z,20.60
2017-12-01T03:35:23.329Z,21.87
2017-12-01T03:37:50.892Z,22.20
2017-12-01T03:40:19.156Z,19.53
2017-12-01T03:42:47.457Z,27.07
2017-12-01T03:45:15.033Z,21.23
2017-12-01T03:47:42.665Z,19.07
2017-12-01T03:50:11.829Z,21.00
2017-12-01T03:52:39.320Z,18.37
2017-12-01T03:55:07.600Z,19.87
2017-12-01T03:57:35.090Z,24.03
2017-12-01T04:00:02.618Z,19.67
2017-12-01T04:02:30.471Z,30.60
2017-12-01T04:04:58.741Z,22.23
2017-12-01T04:07:26.266Z,23.80
2017-12-01T04:09:53.755Z,24.17
2017-12-01T04:12:22.012Z,22.67
2017-12-01T04:14:49.510Z,20.20
2017-12-01T04:17:17.015Z,18.43
2017-12-01T04:19:44.555Z,19.30
2017-12-01T04:22:12.492Z,19.80
2017-12-01T04:24:40.039Z,20.80
2017-12-01T04:27:08.310Z,15.77
2017-12-01T04:29:36.577Z,20.13
2017-12-01T04:32:04.885Z,19.00
2017-12-01T04:34:33.151Z,21.67
2017-12-01T04:37:00.660Z,19.80
2017-12-01T04:39:28.158Z,19.70
2017-12-01T04:41:56.417Z,22.30
2017-12-01T04:44:24.403Z,17.00
2017-12-01T04:46:52.655Z,16.50
2017-12-01T04:49:20.157Z,16.80
2017-12-01T04:51:47.952Z,17.60
2017-12-01T04:54:15.454Z,16.27
2017-12-01T04:56:43.728Z,22.20
2017-12-01T04:59:11.997Z,19.17
2017-12-01T05:01:40.284Z,15.73
2017-12-01T05:04:08.539Z,17.77
2017-12-01T05:06:36.035Z,19.13
2017-12-01T05:09:04.477Z,16.00
2017-12-01T05:11:31.961Z,17.20
2017-12-01T05:13:59.483Z,13.87
2017-12-01T05:16:26.984Z,14.13
2017-12-01T05:18:54.491Z,20.90
2017-12-01T05:21:22.722Z,13.20
2017-12-01T05:23:50.437Z,15.13
2017-12-01T05:26:17.954Z,14.27
2017-12-01T05:28:45.447Z,14.07
2017-12-01T05:31:12.962Z,18.30
2017-12-01T05:33:40.492Z,15.10
2017-12-01T05:36:08.765Z,15.70
2017-12-01T05:38:37.057Z,18.60
2017-12-01T05:41:04.560Z,16.33
2017-12-01T05:43:33.282Z,17.27
2017-12-01T05:46:01.579Z,17.40
2017-12-01T05:48:29.991Z,28.93
2017-12-01T05:50:57.478Z,17.73
2017-12-01T05:53:25.005Z,21.00
2017-12-01T05:55:52.509Z,18.53
2017-12-01T05:58:20.766Z,19.20
2017-12-01T06:00:48.289Z,19.53
2017-12-01T06:03:15.818Z,23.53
2017-12-01T06:05:43.302Z,22.83
2017-12-01T06:08:10.817Z,22.83
2017-12-01T06:10:39.094Z,22.07
2017-12-01T06:13:07.359Z,23.63
2017-12-01T06:15:34.855Z,20.00
2017-12-01T06:18:02.363Z,27.93
2017-12-01T06:20:29.870Z,21.60
2017-12-01T06:22:57.370Z,21.70
2017-12-01T06:25:24.874Z,20.03
2017-12-01T06:27:53.143Z,23.23
2017-12-01T06:30:21.415Z,20.67
2017-12-01T06:32:48.931Z,19.77
2017-12-01T06:35:16.458Z,23.07
2017-12-01T06:37:43.961Z,30.17
2017-12-01T06:40:11.514Z,23.80
2017-12-01T06:42:39.009Z,22.50
2017-12-01T06:45:07.279Z,27.67
2017-12-01T06:47:35.545Z,28.53
2017-12-01T06:50:03.821Z,25.63
2017-12-01T06:52:31.905Z,25.13
2017-12-01T06:54:59.408Z,24.80
2017-12-01T06:57:26.921Z,32.97
2017-12-01T06:59:55.190Z,29.87
2017-12-01T07:02:23.461Z,36.30
2017-12-01T07:04:51.754Z,35.50
2017-12-01T07:07:19.250Z,30.63
2017-12-01T07:09:46.719Z,28.80
2017-12-01T07:12:14.203Z,27.40
2017-12-01T07:14:43.471Z,31.93
2017-12-01T07:17:11.002Z,39.57
2017-12-01T07:19:38.539Z,26.00
2017-12-01T07:22:06.168Z,31.73
2017-12-01T07:24:34.434Z,28.83
2017-12-01T07:27:08.007Z,22.80
2017-12-01T07:29:35.513Z,30.73
2017-12-01T07:32:03.017Z,29.83
2017-12-01T07:34:30.673Z,27.93
2017-12-01T07:36:58.164Z,26.73
2017-12-01T07:39:25.692Z,31.53
2017-12-01T07:41:53.191Z,28.87
2017-12-01T07:44:32.324Z,27.60
2017-12-01T07:47:00.160Z,27.97
2017-12-01T07:49:27.658Z,36.10
2017-12-01T07:51:55.931Z,31.30
2017-12-01T07:54:25.240Z,39.60
2017-12-01T07:56:53.519Z,34.70
2017-12-01T07:59:21.864Z,42.87
2017-12-01T08:01:49.918Z,33.87
2017-12-01T08:04:17.425Z,30.53
2017-12-01T08:06:45.684Z,34.20
2017-12-01T08:09:13.982Z,45.87
2017-12-01T08:11:41.483Z,41.73
2017-12-01T08:14:08.996Z,33.30
2017-12-01T08:16:49.109Z,35.97
2017-12-01T08:19:21.368Z,41.50
2017-12-01T08:22:00.766Z,38.77
2017-12-01T08:24:40.306Z,35.37
2017-12-01T08:27:07.810Z,36.73
2017-12-01T08:29:35.658Z,38.60
2017-12-01T08:32:03.261Z,40.17
2017-12-01T08:34:32.403Z,38.70
2017-12-01T08:36:59.895Z,40.30
2017-12-01T08:39:27.402Z,37.23
2017-12-01T08:41:54.958Z,42.93
2017-12-01T08:44:22.513Z,36.83
2017-12-01T08:46:50.003Z,37.67
2017-12-01T08:49:17.505Z,38.30
2017-12-01T08:51:45.790Z,31.90
2017-12-01T08:54:13.297Z,34.87
2017-12-01T08:56:40.775Z,33.97
2017-12-01T08:59:08.254Z,36.30
2017-12-01T09:01:36.499Z,33.50
2017-12-01T09:04:03.993Z,31.77
2017-12-01T09:06:32.234Z,31.87
2017-12-01T09:08:59.718Z,32.67
2017-12-01T09:11:27.981Z,30.37
2017-12-01T09:13:55.484Z,31.20
2017-12-01T09:16:22.992Z,30.93
2017-12-01T09:18:50.544Z,33.57
2017-12-01T09:21:18.018Z,34.20
2017-12-01T09:23:45.487Z,30.53
2017-12-01T09:26:13.732Z,34.57
2017-12-01T09:28:41.238Z,36.47
2017-12-01T09:31:08.738Z,32.53
2017-12-01T09:33:36.211Z,30.10
2017-12-01T09:36:03.717Z,26.27
2017-12-01T09:38:31.200Z,29.47
2017-12-01T09:40:58.698Z,30.37
2017-12-01T09:43:26.940Z,26.97
2017-12-01T09:45:54.431Z,29.43
2017-12-01T09:48:22.672Z,29.17
2017-12-01T09:50:50.169Z,27.63
2017-12-01T09:53:17.643Z,28.00
2017-12-01T09:55:45.119Z,26.93
2017-12-01T09:58:12.600Z,26.97
2017-12-01T10:00:40.076Z,29.00
2017-12-01T10:03:07.545Z,30.20
2017-12-01T10:05:35.016Z,28.17
2017-12-01T10:08:03.266Z,25.20
2017-12-01T10:10:30.735Z,23.43
2017-12-01T10:12:58.995Z,29.27
2017-12-01T10:15:27.231Z,24.03
2017-12-01T10:17:54.705Z,26.33
2017-12-01T10:20:22.179Z,25.80
2017-12-01T10:22:49.667Z,25.37
2017-12-01T10:25:17.928Z,23.73
2017-12-01T10:27:46.198Z,20.87
2017-12-01T10:30:13.663Z,24.37
2017-12-01T10:32:41.916Z,22.30
2017-12-01T10:35:09.396Z,24.07
2017-12-01T10:37:36.880Z,21.80
2017-12-01T10:40:04.353Z,24.57
2017-12-01T10:42:32.766Z,22.20
2017-12-01T10:45:00.223Z,23.20
2017-12-01T10:47:27.704Z,24.70
2017-12-01T10:49:55.939Z,22.00
2017-12-01T10:52:23.435Z,22.80
2017-12-01T10:54:51.691Z,21.43
2017-12-01T10:57:19.173Z,22.17
2017-12-01T10:59:47.432Z,23.97
2017-12-01T11:02:14.917Z,23.60
2017-12-01T11:04:43.228Z,22.67
2017-12-01T11:07:10.715Z,21.17
2017-12-01T11:09:38.313Z,22.20
2017-12-01T11:12:05.826Z,25.40
2017-12-01T11:14:33.337Z,24.00
2017-12-01T11:17:00.869Z,26.10
2017-12-01T11:19:29.137Z,25.27
2017-12-01T11:21:56.711Z,23.63
2017-12-01T11:24:24.976Z,22.57
2017-12-01T11:26:52.464Z,24.33
2017-12-01T11:29:19.966Z,25.10
2017-12-01T11:31:47.444Z,24.40
2017-12-01T11:34:14.927Z,25.27
2017-12-01T11:36:43.189Z,24.10
2017-12-01T11:39:11.448Z,24.10
2017-12-01T11:41:38.931Z,25.90
2017-12-01T11:44:07.190Z,27.50
2017-12-01T11:46:34.659Z,25.17
2017-12-01T11:49:02.921Z,25.07
2017-12-01T11:51:31.872Z,24.93
2017-12-01T11:53:59.347Z,23.37
2017-12-01T11:56:26.833Z,24.30
2017-12-01T11:58:55.078Z,23.90
2017-12-01T12:01:22.567Z,24.63
2017-12-01T12:03:50.856Z,25.87
2017-12-01T12:06:18.373Z,26.67
2017-12-01T12:08:46.701Z,24.40
2017-12-01T12:11:14.191Z,25.87
2017-12-01T12:13:41.695Z,25.80
2017-12-01T12:16:09.959Z,25.20
2017-12-01T12:18:37.439Z,26.63
2017-12-01T12:21:04.925Z,25.80
2017-12-01T12:23:33.167Z,24.30
2017-12-01T12:26:01.536Z,25.37
2017-12-01T12:28:29.784Z,25.00
2017-12-01T12:30:57.264Z,24.57
2017-12-01T12:33:25.511Z,24.90
2017-12-01T12:35:52.980Z,25.97
2017-12-01T12:38:20.448Z,27.20
2017-12-01T12:40:47.920Z,24.10
2017-12-01T12:43:16.181Z,26.60
2017-12-01T12:45:44.332Z,25.90
2017-12-01T12:48:12.644Z,26.70
2017-12-01T12:50:40.887Z,24.10
2017-12-01T12:53:08.382Z,25.70
2017-12-01T12:55:35.868Z,24.77
2017-12-01T12:58:03.355Z,26.23
2017-12-01T13:00:31.938Z,28.53
2017-12-01T13:03:00.247Z,29.67
2017-12-01T13:05:28.509Z,28.80
2017-12-01T13:07:56.000Z,29.40
2017-12-01T13:10:23.478Z,29.80
2017-12-01T13:12:50.979Z,28.47
2017-12-01T13:15:18.588Z,26.50
2017-12-01T13:17:46.074Z,27.80
2017-12-01T13:20:13.540Z,28.70
2017-12-01T13:22:41.036Z,29.80
2017-12-01T13:25:09.268Z,30.33
2017-12-01T13:27:36.756Z,31.63
2017-12-01T13:30:05.073Z,31.97
2017-12-01T13:32:32.619Z,31.93
2017-12-01T13:35:00.104Z,30.17
2017-12-01T13:37:27.596Z,30.70
2017-12-01T13:39:55.068Z,31.57
2017-12-01T13:42:23.351Z,33.70
2017-12-01T13:44:50.851Z,31.33
2017-12-01T13:47:18.338Z,32.73
2017-12-01T13:49:45.811Z,31.20
2017-12-01T13:52:14.089Z,31.33
2017-12-01T13:54:42.341Z,29.47
2017-12-01T13:57:09.811Z,30.40
2017-12-01T13:59:38.051Z,32.23
2017-12-01T14:02:05.535Z,32.73
2017-12-01T14:04:33.735Z,33.90
2017-12-01T14:07:01.970Z,33.13
2017-12-01T14:09:29.470Z,33.40
2017-12-01T14:11:56.962Z,32.43
2017-12-01T14:14:25.200Z,34.47
2017-12-01T14:16:52.677Z,32.07
2017-12-01T14:19:20.139Z,35.70
2017-12-01T14:21:47.603Z,36.93
2017-12-01T14:24:15.087Z,35.80
2017-12-01T14:26:42.671Z,35.57
2017-12-01T14:29:11.758Z,32.57
2017-12-01T14:31:40.013Z,31.80
2017-12-01T14:34:07.472Z,36.37
2017-12-01T14:36:34.927Z,33.83
2017-12-01T14:39:02.424Z,32.87
2017-12-01T14:41:30.680Z,35.20
2017-12-01T14:43:58.162Z,33.63
2017-12-01T14:46:25.662Z,34.73
2017-12-01T14:48:53.133Z,35.97
2017-12-01T14:51:20.615Z,35.17
2017-12-01T14:53:48.865Z,33.57
2017-12-01T14:56:16.344Z,35.47
2017-12-01T14:58:43.815Z,35.80
2017-12-01T15:01:12.992Z,37.53
2017-12-01T15:03:40.469Z,32.73
2017-12-01T15:06:08.737Z,34.93
2017-12-01T15:08:36.983Z,34.60
2017-12-01T15:11:04.469Z,34.07
2017-12-01T15:13:32.739Z,32.47
2017-12-01T15:16:00.987Z,33.70
2017-12-01T15:18:28.511Z,32.30
2017-12-01T15:20:55.988Z,33.73
2017-12-01T15:23:24.281Z,32.90
2017-12-01T15:25:51.765Z,33.70
2017-12-01T15:28:20.075Z,34.30
2017-12-01T15:30:47.573Z,34.17
2017-12-01T15:33:15.061Z,31.10
2017-12-01T15:35:43.068Z,33.50
2017-12-01T15:38:10.579Z,32.00
2017-12-01T15:40:38.854Z,35.30
2017-12-01T15:43:07.119Z,36.43
2017-12-01T15:45:34.623Z,36.90
2017-12-01T15:48:02.147Z,38.47
2017-12-01T15:50:30.405Z,37.03
2017-12-01T15:52:57.911Z,38.73
2017-12-01T15:55:25.384Z,34.67
2017-12-01T15:57:52.870Z,34.17
2017-12-01T16:00:20.396Z,36.30
2017-12-01T16:02:47.884Z,35.83
2017-12-01T16:05:15.391Z,33.20
2017-12-01T16:07:42.885Z,33.53
2017-12-01T16:10:10.400Z,31.07
2017-12-01T16:12:37.919Z,31.20
2017-12-01T16:15:05.407Z,38.40
2017-12-01T16:17:33.665Z,35.77
2017-12-01T16:20:01.937Z,33.80
2017-12-01T16:22:29.429Z,31.77
2017-12-01T16:24:56.921Z,32.27
2017-12-01T16:27:24.434Z,31.13
2017-12-01T16:29:51.941Z,31.80
2017-12-01T16:32:19.442Z,28.57
2017-12-01T16:34:47.697Z,30.70
2017-12-01T16:37:15.202Z,30.10
2017-12-01T16:39:42.739Z,33.63
2017-12-01T16:42:11.042Z,34.37
2017-12-01T16:44:38.572Z,37.23
2017-12-01T16:47:07.741Z,36.30
2017-12-01T16:49:36.526Z,38.90
2017-12-01T16:52:04.031Z,35.57
2017-12-01T16:54:31.536Z,32.87
2017-12-01T16:56:59.059Z,35.63
2017-12-01T16:59:26.583Z,35.37
2017-12-01T17:01:54.858Z,33.50
2017-12-01T17:04:23.129Z,34.03
2017-12-01T17:06:51.394Z,35.03
2017-12-01T17:09:18.884Z,33.50
2017-12-01T17:11:46.368Z,34.17
2017-12-01T17:14:13.880Z,32.50
2017-12-01T17:16:43.041Z,35.33
2017-12-01T17:19:10.559Z,32.90
2017-12-01T17:21:38.066Z,36.07
2017-12-01T17:24:05.608Z,37.87
2017-12-01T17:26:33.255Z,36.77
2017-12-01T17:29:00.742Z,36.03
2017-12-01T17:31:28.216Z,37.03
2017-12-01T17:33:55.682Z,37.23
2017-12-01T17:36:23.932Z,32.80
2017-12-01T17:38:51.449Z,36.87
2017-12-01T17:41:18.919Z,34.00
2017-12-01T17:43:47.291Z,42.87
2017-12-01T17:46:14.794Z,37.50
2017-12-01T17:48:42.271Z,38.13
2017-12-01T17:51:10.533Z,38.33
2017-12-01T17:53:38.841Z,34.30
2017-12-01T17:56:06.313Z,40.70
2017-12-01T17:58:34.433Z,42.63
2017-12-01T18:01:01.921Z,42.53
2017-12-01T18:03:29.468Z,37.40
2017-12-01T18:05:56.891Z,39.43
2017-12-01T18:08:24.381Z,34.60
2017-12-01T18:10:53.275Z,35.43
2017-12-01T18:13:20.842Z,32.10
2017-12-01T18:15:48.366Z,32.00
2017-12-01T18:18:16.630Z,33.07
2017-12-01T18:20:44.295Z,31.47
2017-12-01T18:23:11.953Z,30.40
2017-12-01T18:25:40.226Z,27.93
2017-12-01T18:28:08.583Z,31.10
2017-12-01T18:30:37.431Z,33.23
2017-12-01T18:33:05.703Z,39.17
2017-12-01T18:35:33.953Z,37.33
2017-12-01T18:38:01.449Z,39.00
2017-12-01T18:40:28.936Z,32.67
2017-12-01T18:42:56.415Z,29.17
2017-12-01T18:45:23.920Z,31.00
2017-12-01T18:47:51.409Z,31.30
2017-12-01T18:50:18.907Z,31.00
2017-12-01T18:52:46.402Z,29.57
2017-12-01T18:55:13.892Z,30.27
2017-12-01T18:57:41.375Z,33.10
2017-12-01T19:00:08.843Z,32.00
2017-12-01T19:02:36.315Z,29.73
2017-12-01T19:05:03.801Z,30.23
2017-12-01T19:07:31.289Z,30.10
2017-12-01T19:09:58.779Z,28.90
2017-12-01T19:12:27.047Z,31.90
2017-12-01T19:14:55.333Z,34.20
2017-12-01T19:17:22.789Z,32.43
2017-12-01T19:19:51.052Z,30.30
2017-12-01T19:22:19.446Z,30.03
2017-12-01T19:24:47.103Z,31.23
2017-12-01T19:27:15.339Z,29.73
2017-12-01T19:29:42.837Z,32.50
2017-12-01T19:32:11.093Z,30.30
2017-12-01T19:34:38.584Z,33.40
2017-12-01T19:37:06.063Z,37.63
2017-12-01T19:39:33.530Z,31.83
2017-12-01T19:42:01.005Z,34.10
2017-12-01T19:44:29.275Z,38.00
2017-12-01T19:46:56.757Z,35.47
2017-12-01T19:49:25.044Z,43.00
2017-12-01T19:51:53.296Z,51.17
2017-12-01T19:54:20.817Z,56.60
2017-12-01T19:56:48.311Z,58.87
2017-12-01T19:59:15.795Z,58.77
2017-12-01T20:01:44.032Z,59.13
2017-12-01T20:04:11.508Z,53.83
2017-12-01T20:06:38.973Z,52.60
2017-12-01T20:09:07.217Z,51.60
2017-12-01T20:11:34.696Z,61.77
2017-12-01T20:14:02.162Z,61.77
2017-12-01T20:16:34.603Z,58.33
2017-12-01T20:19:02.120Z,57.17
2017-12-01T20:21:29.658Z,52.50
2017-12-01T20:23:57.927Z,48.53
2017-12-01T20:26:26.178Z,45.53
2017-12-01T20:28:54.941Z,46.70
2017-12-01T20:31:22.460Z,46.33
2017-12-01T20:33:50.733Z,44.43
2017-12-01T20:36:18.990Z,40.30
2017-12-01T20:38:47.263Z,40.57
2017-12-01T20:41:14.768Z,39.17
2017-12-01T20:43:42.876Z,38.50
2017-12-01T20:46:10.376Z,40.47
2017-12-01T20:48:37.883Z,45.57
2017-12-01T20:51:05.395Z,42.07
2017-12-01T20:53:32.905Z,39.33
2017-12-01T20:56:00.451Z,40.20
2017-12-01T20:58:27.934Z,40.40
2017-12-01T21:00:55.422Z,38.00
2017-12-01T21:03:22.980Z,34.27
2017-12-01T21:05:51.246Z,38.50
2017-12-01T21:08:19.504Z,37.17
2017-12-01T21:10:46.980Z,38.60
2017-12-01T21:13:15.239Z,40.40
2017-12-01T21:15:42.720Z,38.07
2017-12-01T21:18:10.980Z,35.83
2017-12-01T21:20:39.239Z,36.30
2017-12-01T21:23:06.724Z,35.07
2017-12-01T21:25:34.992Z,35.33
2017-12-01T21:28:02.463Z,34.33
2017-12-01T21:30:29.966Z,31.47
2017-12-01T21:32:57.431Z,36.60
2017-12-01T21:35:24.968Z,33.23
2017-12-01T21:37:52.607Z,37.70
2017-12-01T21:40:20.087Z,33.80
2017-12-01T21:42:47.584Z,32.10
2017-12-01T21:45:15.156Z,33.23
2017-12-01T21:47:43.407Z,31.07
2017-12-01T21:50:11.225Z,27.87
2017-12-01T21:52:38.704Z,49.83
2017-12-01T21:55:06.384Z,46.10
2017-12-01T21:57:33.868Z,49.03
2017-12-01T22:00:02.116Z,49.77
2017-12-01T22:02:29.613Z,46.87
2017-12-01T22:04:57.942Z,50.37
2017-12-01T22:07:25.449Z,41.70
2017-12-01T22:09:53.705Z,27.00
2017-12-01T22:12:22.026Z,28.53
2017-12-01T22:14:49.561Z,30.53
2017-12-01T22:17:17.839Z,20.90
2017-12-01T22:19:45.352Z,19.67
2017-12-01T22:22:13.010Z,20.00
2017-12-01T22:24:40.506Z,21.40
2017-12-01T22:27:08.774Z,21.47
2017-12-01T22:29:37.047Z,18.37
2017-12-01T22:32:05.298Z,18.17
2017-12-01T22:34:32.767Z,19.23
2017-12-01T22:37:00.365Z,24.40
2017-12-01T22:39:27.846Z,41.53
2017-12-01T22:41:55.323Z,19.70
2017-12-01T22:44:22.809Z,22.03
2017-12-01T22:46:51.070Z,21.50
2017-12-01T22:49:18.666Z,22.57
2017-12-01T22:51:46.175Z,25.60
2017-12-01T22:54:13.663Z,23.00
2017-12-01T22:56:41.916Z,25.93
2017-12-01T22:59:09.399Z,26.80
2017-12-01T23:01:37.647Z,25.57
2017-12-01T23:04:05.133Z,20.17
2017-12-01T23:06:33.397Z,20.60
2017-12-01T23:09:01.652Z,19.70
2017-12-01T23:11:29.140Z,19.60
2017-12-01T23:13:57.383Z,21.10
2017-12-01T23:16:24.859Z,27.27
2017-12-01T23:18:53.120Z,23.70
2017-12-01T23:21:21.331Z,25.83
2017-12-01T23:23:49.564Z,21.20
2017-12-01T23:26:17.057Z,19.87
2017-12-01T23:28:45.304Z,31.87
2017-12-01T23:31:14.096Z,19.87
2017-12-01T23:33:41.599Z,23.30
2017-12-01T23:36:09.096Z,19.43
2017-12-01T23:38:38.092Z,26.43
2017-12-01T23:41:05.596Z,28.90
2017-12-01T23:43:33.093Z,28.50
2017-12-01T23:46:01.368Z,18.60
2017-12-01T23:48:28.892Z,20.60
2017-12-01T23:50:56.379Z,27.83
2017-12-01T23:53:23.860Z,24.57
2017-12-01T23:55:51.371Z,28.13
2017-12-01T23:58:18.875Z,30.93
